Time;durP1;ratioP1;P1;durP2;ratioP2;P2;SDS_P1;SDS_P2;PMS_P1;PMS_P2;Temp;Humidity;BMP_temperature;BMP_pressure;BME280_temperature;BME280_humidity;BME280_pressure;Samples;Min_cycle;Max_cycle;Signal;HPM_P1;HPM_P2
2024/04/21 00:00:57;;;;;;;16.50;12.10;;;;;;;2.77;100.00;98848.63;109520;1253;59885;-72
2024/04/21 00:03:43;;;;;;;11.10;10.00;;;;;;;2.75;100.00;98847.50;109514;1251;78214;-73
2024/04/21 00:06:10;;;;;;;11.20;9.70;;;;;;;2.73;100.00;98851.77;109524;1252;59738;-73
2024/04/21 00:08:36;;;;;;;11.30;9.90;;;;;;;2.72;100.00;98853.93;109465;1252;59848;-73
2024/04/21 00:11:02;;;;;;;9.80;7.80;;;;;;;2.71;100.00;98855.54;109485;1252;59812;-74
2024/04/21 00:13:29;;;;;;;9.20;8.20;;;;;;;2.68;100.00;98856.90;109111;1253;60101;-72
2024/04/21 00:15:55;;;;;;;10.60;9.50;;;;;;;2.65;100.00;98854.88;109525;1253;60292;-72
2024/04/21 00:18:21;;;;;;;14.30;12.10;;;;;;;2.63;100.00;98859.67;109496;1252;60147;-73
2024/04/21 00:20:48;;;;;;;18.60;15.80;;;;;;;2.63;100.00;98859.70;109467;1252;59897;-73
2024/04/21 00:23:14;;;;;;;16.40;13.40;;;;;;;2.65;100.00;98857.17;109496;1252;59861;-73
2024/04/21 00:25:40;;;;;;;10.60;9.70;;;;;;;2.68;100.00;98856.20;109528;1253;60138;-73
2024/04/21 00:28:07;;;;;;;11.60;10.50;;;;;;;2.68;100.00;98858.11;109140;1254;60170;-73
2024/04/21 00:30:33;;;;;;;13.20;11.80;;;;;;;2.67;100.00;98860.27;109495;1253;60029;-73
2024/04/21 00:33:00;;;;;;;14.00;12.10;;;;;;;2.67;100.00;98857.98;109353;1253;59922;-73
2024/04/21 00:35:26;;;;;;;14.10;11.90;;;;;;;2.67;100.00;98856.57;109502;1251;59804;-73
2024/04/21 00:37:52;;;;;;;11.70;10.60;;;;;;;2.66;100.00;98858.18;109494;1253;60261;-73
2024/04/21 00:40:18;;;;;;;12.10;10.90;;;;;;;2.62;100.00;98859.89;109521;1253;59791;-74
2024/04/21 00:42:45;;;;;;;15.00;13.30;;;;;;;2.61;100.00;98860.14;109494;1253;59829;-73
2024/04/21 00:45:11;;;;;;;13.70;12.30;;;;;;;2.59;100.00;98865.27;109539;1252;59838;-73
2024/04/21 00:47:38;;;;;;;12.90;11.60;;;;;;;2.58;100.00;98869.17;109514;1252;59976;-73
2024/04/21 00:50:06;;;;;;;10.70;9.70;;;;;;;2.58;100.00;98871.80;109537;1252;59834;-72
2024/04/21 00:52:32;;;;;;;11.00;9.90;;;;;;;2.54;100.00;98872.31;109534;1253;59925;-72
2024/04/21 00:54:59;;;;;;;10.50;9.50;;;;;;;2.47;100.00;98870.98;109507;1252;59826;-73
2024/04/21 00:57:25;;;;;;;11.40;9.90;;;;;;;2.44;100.00;98877.40;109481;1253;60254;-73
2024/04/21 00:59:52;;;;;;;11.60;10.20;;;;;;;2.40;100.00;98876.48;109501;1251;59738;-74
2024/04/21 01:02:18;;;;;;;11.60;10.40;;;;;;;2.39;100.00;98876.33;109482;1251;59751;-73
2024/04/21 01:04:44;;;;;;;11.40;10.20;;;;;;;2.40;100.00;98881.75;109496;1252;59941;-73
2024/04/21 01:07:11;;;;;;;10.50;9.40;;;;;;;2.41;100.00;98883.30;109511;1253;59868;-72
2024/04/21 01:09:37;;;;;;;11.00;9.80;;;;;;;2.41;100.00;98887.52;109508;1252;59841;-72
2024/04/21 01:12:04;;;;;;;11.50;10.30;;;;;;;2.38;100.00;98889.88;109488;1252;60097;-72
2024/04/21 01:14:30;;;;;;;9.20;8.30;;;;;;;2.36;100.00;98884.52;109545;1252;59799;-72
2024/04/21 01:16:56;;;;;;;8.40;7.70;;;;;;;2.33;100.00;98883.95;109506;1252;59874;-72
2024/04/21 01:19:23;;;;;;;9.70;7.80;;;;;;;2.28;100.00;98882.70;109510;1252;59777;-73
2024/04/21 01:21:49;;;;;;;11.00;9.90;;;;;;;2.23;100.00;98879.20;109490;1253;60722;-73
2024/04/21 01:24:15;;;;;;;8.30;7.50;;;;;;;2.22;100.00;98880.63;109513;1253;59995;-73
2024/04/21 01:26:41;;;;;;;10.40;9.40;;;;;;;2.20;100.00;98881.04;109521;1253;59833;-73
2024/04/21 01:29:08;;;;;;;10.50;9.50;;;;;;;2.19;100.00;98882.30;109545;1252;59777;-73
2024/04/21 01:31:34;;;;;;;10.70;9.60;;;;;;;2.16;100.00;98884.69;109543;1251;59844;-73
2024/04/21 01:34:00;;;;;;;10.50;9.40;;;;;;;2.15;100.00;98891.23;109457;1252;59779;-73
2024/04/21 01:36:27;;;;;;;10.20;9.20;;;;;;;2.11;100.00;98894.83;109512;1252;59866;-73
2024/04/21 01:38:53;;;;;;;9.80;8.90;;;;;;;2.08;100.00;98895.99;109543;1253;59900;-73
2024/04/21 01:41:19;;;;;;;9.50;8.50;;;;;;;2.06;100.00;98897.32;109498;1251;59879;-73
2024/04/21 01:43:46;;;;;;;10.20;9.20;;;;;;;2.00;100.00;98895.95;109514;1253;59863;-73
2024/04/21 01:46:12;;;;;;;10.90;9.90;;;;;;;1.96;100.00;98894.13;109536;1251;59845;-73
2024/04/21 01:48:38;;;;;;;10.40;9.30;;;;;;;1.94;100.00;98898.58;109498;1252;59748;-73
2024/04/21 01:51:05;;;;;;;12.10;10.90;;;;;;;1.94;100.00;98896.46;109526;1252;66843;-73
2024/04/21 01:53:32;;;;;;;10.90;9.90;;;;;;;1.93;100.00;98895.09;109502;1252;60011;-73
2024/04/21 01:55:59;;;;;;;11.60;10.40;;;;;;;1.92;100.00;98896.17;109489;1252;71757;-73
2024/04/21 01:58:25;;;;;;;14.00;12.20;;;;;;;1.92;100.00;98895.86;109512;1252;59765;-73
2024/04/21 02:00:51;;;;;;;13.40;12.10;;;;;;;1.93;100.00;98898.77;109549;1253;59795;-73
2024/04/21 02:03:18;;;;;;;13.00;11.70;;;;;;;1.95;100.00;98900.99;109508;1253;60124;-73
2024/04/21 02:05:45;;;;;;;13.90;12.40;;;;;;;1.95;100.00;98898.54;109573;1253;59813;-73
2024/04/21 02:08:11;;;;;;;14.10;12.60;;;;;;;1.95;100.00;98897.14;109521;1253;64084;-73
2024/04/21 02:10:38;;;;;;;13.80;12.40;;;;;;;1.95;100.00;98895.06;109118;1252;60052;-74
2024/04/21 02:13:04;;;;;;;13.20;11.90;;;;;;;1.94;100.00;98893.34;109514;1252;59864;-72
2024/04/21 02:15:30;;;;;;;14.50;13.00;;;;;;;1.92;100.00;98893.40;109540;1252;59868;-72
2024/04/21 02:17:56;;;;;;;14.50;13.00;;;;;;;1.91;100.00;98894.46;109515;1252;60122;-74
2024/04/21 02:20:23;;;;;;;15.00;13.50;;;;;;;1.91;100.00;98889.92;109521;1253;59849;-73
2024/04/21 02:22:49;;;;;;;12.30;11.10;;;;;;;1.94;100.00;98892.27;109498;1253;59933;-72
2024/04/21 02:25:16;;;;;;;14.00;12.60;;;;;;;1.93;100.00;98894.77;109514;1253;59918;-72
2024/04/21 02:27:43;;;;;;;16.00;14.40;;;;;;;1.90;100.00;98894.00;109523;1252;60151;-73
2024/04/21 02:30:09;;;;;;;13.70;12.40;;;;;;;1.90;100.00;98894.52;109583;1252;59816;-73
2024/04/21 02:32:36;;;;;;;15.80;14.20;;;;;;;1.89;100.00;98897.86;109484;1253;60684;-74
2024/04/21 02:35:02;;;;;;;14.60;13.10;;;;;;;1.89;100.00;98895.94;109531;1252;59743;-73
2024/04/21 02:37:28;;;;;;;15.70;13.70;;;;;;;1.89;100.00;98896.66;109510;1252;59809;-73
2024/04/21 02:39:55;;;;;;;16.10;14.40;;;;;;;1.88;100.00;98900.02;109528;1251;60227;-72
2024/04/21 02:42:21;;;;;;;16.90;15.20;;;;;;;1.86;100.00;98898.33;109510;1253;60114;-73
2024/04/21 02:44:47;;;;;;;16.50;14.60;;;;;;;1.86;100.00;98895.87;109512;1252;59928;-73
2024/04/21 02:47:14;;;;;;;15.50;13.90;;;;;;;1.88;100.00;98899.16;109512;1251;59749;-74
2024/04/21 02:49:40;;;;;;;15.40;13.80;;;;;;;1.87;100.00;98897.94;109557;1252;59922;-72
2024/04/21 02:52:06;;;;;;;14.30;12.80;;;;;;;1.88;100.00;98897.38;109534;1251;59873;-74
2024/04/21 02:54:33;;;;;;;16.00;13.40;;;;;;;1.88;100.00;98893.36;109559;1252;59804;-74
2024/04/21 02:56:59;;;;;;;15.50;13.90;;;;;;;1.88;100.00;98895.28;109467;1251;60027;-74
2024/04/21 02:59:25;;;;;;;14.30;12.80;;;;;;;1.89;100.00;98894.02;109565;1252;60006;-73
2024/04/21 03:01:51;;;;;;;16.20;14.00;;;;;;;1.88;100.00;98898.28;109539;1252;59831;-74
2024/04/21 03:04:18;;;;;;;14.80;13.20;;;;;;;1.87;100.00;98898.29;109256;1251;59914;-74
2024/04/21 03:06:46;;;;;;;15.10;13.50;;;;;;;1.86;100.00;98900.59;109517;1252;59846;-72
2024/04/21 03:09:12;;;;;;;13.30;11.90;;;;;;;1.85;100.00;98900.83;109531;1252;59859;-73
2024/04/21 03:11:38;;;;;;;12.60;11.30;;;;;;;1.82;100.00;98899.15;109515;1252;59839;-74
2024/04/21 03:14:05;;;;;;;13.40;12.10;;;;;;;1.81;100.00;98899.17;109532;1253;60020;-74
2024/04/21 03:16:31;;;;;;;12.90;11.60;;;;;;;1.80;100.00;98900.10;109544;1252;60096;-74
2024/04/21 03:18:58;;;;;;;12.40;11.20;;;;;;;1.79;100.00;98897.69;109520;1252;60210;-73
2024/04/21 03:21:24;;;;;;;11.10;10.00;;;;;;;1.82;100.00;98895.83;109506;1251;59846;-74
2024/04/21 03:23:51;;;;;;;12.60;11.30;;;;;;;1.83;100.00;98899.66;109510;1253;59821;-74
2024/04/21 03:26:17;;;;;;;12.40;11.10;;;;;;;1.76;100.00;98891.99;108774;1252;1006482;-73
2024/04/21 03:28:44;;;;;;;12.00;10.60;;;;;;;1.76;100.00;98898.29;109540;1252;60216;-74
2024/04/21 03:31:11;;;;;;;11.90;10.60;;;;;;;1.72;100.00;98896.33;109544;1252;59958;-74
2024/04/21 03:33:37;;;;;;;12.70;11.50;;;;;;;1.71;100.00;98899.85;109508;1253;59863;-74
2024/04/21 03:36:07;;;;;;;13.90;12.60;;;;;;;1.71;100.00;98901.45;109484;1252;59870;-73
2024/04/21 03:38:34;;;;;;;12.60;11.40;;;;;;;1.69;100.00;98903.77;109482;1253;59751;-74
2024/04/21 03:41:01;;;;;;;12.90;11.60;;;;;;;1.68;100.00;98904.17;109531;1252;65604;-74
2024/04/21 03:43:28;;;;;;;13.30;11.90;;;;;;;1.67;100.00;98905.79;109565;1252;60131;-74
2024/04/21 03:45:55;;;;;;;14.00;12.60;;;;;;;1.66;100.00;98908.25;109512;1251;64162;-74
2024/04/21 03:48:22;;;;;;;14.20;12.80;;;;;;;1.65;100.00;98910.05;109505;1252;60000;-74
2024/04/21 03:50:49;;;;;;;15.10;13.70;;;;;;;1.64;100.00;98911.46;109374;1252;59819;-74
2024/04/21 03:53:17;;;;;;;15.20;13.60;;;;;;;1.66;100.00;98911.77;109515;1252;59986;-73
2024/04/21 03:55:44;;;;;;;14.00;12.50;;;;;;;1.67;100.00;98911.74;109509;1251;59859;-73
2024/04/21 03:58:13;;;;;;;14.30;12.80;;;;;;;1.66;100.00;98912.28;109514;1253;63756;-73
2024/04/21 04:00:39;;;;;;;13.90;12.50;;;;;;;1.66;100.00;98910.55;109487;1253;59790;-75
2024/04/21 04:03:06;;;;;;;13.90;12.50;;;;;;;1.64;100.00;98911.99;109528;1252;59890;-73
2024/04/21 04:05:32;;;;;;;13.10;11.80;;;;;;;1.64;100.00;98912.54;109507;1253;67817;-74
2024/04/21 04:07:59;;;;;;;14.30;12.90;;;;;;;1.65;100.00;98916.34;109513;1252;59756;-73
2024/04/21 04:10:25;;;;;;;13.40;12.00;;;;;;;1.64;100.00;98911.82;109477;1252;60275;-74
2024/04/21 04:12:51;;;;;;;13.50;12.00;;;;;;;1.66;100.00;98912.82;109534;1253;59869;-74
2024/04/21 04:15:18;;;;;;;14.50;13.10;;;;;;;1.68;100.00;98913.27;109536;1253;59770;-74
2024/04/21 04:17:44;;;;;;;14.70;13.20;;;;;;;1.72;100.00;98914.90;109517;1253;59908;-74
2024/04/21 04:20:10;;;;;;;15.80;13.80;;;;;;;1.76;100.00;98917.05;109528;1253;59785;-74
2024/04/21 04:22:36;;;;;;;14.20;12.80;;;;;;;1.78;100.00;98918.02;109505;1252;59907;-74
2024/04/21 04:25:03;;;;;;;15.10;13.40;;;;;;;1.81;100.00;98919.51;109522;1253;59850;-74
2024/04/21 04:27:30;;;;;;;15.40;13.80;;;;;;;1.84;100.00;98920.64;109529;1253;60288;-74
2024/04/21 04:29:56;;;;;;;15.20;13.50;;;;;;;1.85;100.00;98925.85;109522;1253;59819;-74
2024/04/21 04:32:22;;;;;;;15.20;13.70;;;;;;;1.86;100.00;98931.25;109507;1252;59863;-73
2024/04/21 04:34:49;;;;;;;16.40;14.70;;;;;;;1.88;100.00;98929.61;109499;1252;59832;-73
2024/04/21 04:37:15;;;;;;;17.50;15.50;;;;;;;1.92;100.00;98928.80;109511;1252;59943;-72
2024/04/21 04:39:44;;;;;;;17.90;16.20;;;;;;;1.94;100.00;98931.67;109522;1253;59885;-74
2024/04/21 04:42:11;;;;;;;19.00;16.80;;;;;;;1.98;100.00;98931.91;109516;1252;67035;-74
2024/04/21 04:44:37;;;;;;;20.70;18.50;;;;;;;2.00;100.00;98933.59;109501;1251;60122;-73
2024/04/21 04:47:04;;;;;;;20.00;18.00;;;;;;;2.03;100.00;98936.48;109510;1251;59925;-73
2024/04/21 04:49:31;;;;;;;20.80;17.90;;;;;;;2.06;100.00;98938.67;109240;1253;59928;-74
2024/04/21 04:51:58;;;;;;;20.00;17.80;;;;;;;2.08;100.00;98934.92;109526;1253;59846;-74
2024/04/21 04:54:24;;;;;;;20.80;18.50;;;;;;;2.10;100.00;98936.77;109257;1253;59827;-72
2024/04/21 04:56:54;;;;;;;18.40;16.60;;;;;;;2.14;100.00;98937.19;109501;1252;59870;-73
2024/04/21 04:59:21;;;;;;;20.70;18.00;;;;;;;2.16;100.00;98936.23;109450;1252;64082;-73
2024/04/21 05:01:48;;;;;;;20.80;17.40;;;;;;;2.15;100.00;98938.18;105635;1253;1003054;-73
2024/04/21 05:04:14;;;;;;;19.30;17.30;;;;;;;2.14;100.00;98937.85;109229;1252;60475;-74
2024/04/21 05:06:40;;;;;;;19.10;16.60;;;;;;;2.12;100.00;98939.35;109537;1253;60087;-73
2024/04/21 05:09:07;;;;;;;17.90;16.10;;;;;;;2.09;100.00;98941.88;109539;1253;59723;-73
2024/04/21 05:11:33;;;;;;;18.90;16.40;;;;;;;2.10;100.00;98942.23;109458;1253;63736;-73
2024/04/21 05:14:00;;;;;;;19.30;17.20;;;;;;;2.11;100.00;98942.52;109478;1252;59793;-74
2024/04/21 05:16:26;;;;;;;18.50;16.50;;;;;;;2.12;100.00;98945.30;109524;1253;59773;-73
2024/04/21 05:18:52;;;;;;;18.60;15.90;;;;;;;2.12;100.00;98944.76;109504;1252;59869;-73
2024/04/21 05:21:19;;;;;;;18.00;16.10;;;;;;;2.09;100.00;98945.58;109522;1254;59842;-74
2024/04/21 05:23:45;;;;;;;21.70;18.30;;;;;;;2.07;100.00;98944.41;109559;1252;60048;-74
2024/04/21 05:26:12;;;;;;;20.50;18.30;;;;;;;2.09;100.00;98949.43;109515;1253;60027;-74
2024/04/21 05:28:38;;;;;;;20.00;17.90;;;;;;;2.12;100.00;98948.11;109493;1252;59857;-73
2024/04/21 05:31:04;;;;;;;20.50;17.00;;;;;;;2.09;100.00;98946.96;109471;1253;59851;-72
2024/04/21 05:33:31;;;;;;;19.10;17.10;;;;;;;2.07;100.00;98949.33;109558;1252;60117;-74
2024/04/21 05:35:57;;;;;;;18.20;16.40;;;;;;;2.06;100.00;98948.66;109488;1252;59765;-73
2024/04/21 05:38:23;;;;;;;19.30;17.30;;;;;;;2.07;100.00;98948.10;109507;1253;59840;-72
2024/04/21 05:40:50;;;;;;;19.50;17.50;;;;;;;2.09;100.00;98950.10;109526;1253;59907;-74
2024/04/21 05:43:16;;;;;;;17.90;15.80;;;;;;;2.12;100.00;98953.17;109557;1252;59842;-73
2024/04/21 05:45:42;;;;;;;18.60;16.70;;;;;;;2.16;100.00;98955.67;109533;1254;60116;-73
2024/04/21 05:48:09;;;;;;;18.50;16.50;;;;;;;2.18;100.00;98955.41;109248;1253;59961;-73
2024/04/21 05:50:35;;;;;;;21.10;18.00;;;;;;;2.19;100.00;98959.79;109557;1253;59671;-73
2024/04/21 05:53:01;;;;;;;20.60;18.30;;;;;;;2.19;100.00;98959.79;109544;1254;59729;-74
2024/04/21 05:55:28;;;;;;;18.10;16.20;;;;;;;2.22;100.00;98958.64;109503;1252;59961;-74
2024/04/21 05:57:54;;;;;;;21.60;18.00;;;;;;;2.24;100.00;98958.05;109512;1254;59840;-73
2024/04/21 06:00:20;;;;;;;20.20;17.80;;;;;;;2.26;100.00;98964.12;109486;1253;60167;-74
2024/04/21 06:02:47;;;;;;;22.10;18.20;;;;;;;2.30;100.00;98963.98;109516;1252;59742;-73
2024/04/21 06:05:13;;;;;;;21.10;17.60;;;;;;;2.31;100.00;98962.18;109526;1252;59774;-74
2024/04/21 06:07:39;;;;;;;18.20;16.40;;;;;;;2.31;100.00;98963.23;109547;1253;59831;-74
2024/04/21 06:10:06;;;;;;;17.40;15.60;;;;;;;2.32;100.00;98965.13;109546;1252;60035;-73
2024/04/21 06:12:32;;;;;;;18.30;16.20;;;;;;;2.33;100.00;98963.32;109507;1254;59833;-73
2024/04/21 06:14:59;;;;;;;18.00;16.10;;;;;;;2.35;100.00;98963.64;109540;1253;59798;-73
2024/04/21 06:17:25;;;;;;;18.60;16.60;;;;;;;2.37;100.00;98966.34;109223;1252;59769;-73
2024/04/21 06:19:51;;;;;;;17.10;14.60;;;;;;;2.40;100.00;98968.52;109518;1253;59754;-73
2024/04/21 06:22:18;;;;;;;16.80;15.20;;;;;;;2.43;100.00;98968.45;109227;1259;59852;-74
2024/04/21 06:24:44;;;;;;;16.80;14.80;;;;;;;2.46;100.00;98966.57;109539;1255;59879;-74
2024/04/21 06:27:11;;;;;;;18.70;16.90;;;;;;;2.50;100.00;98968.55;109501;1253;59824;-73
2024/04/21 06:29:37;;;;;;;17.90;16.10;;;;;;;2.55;100.00;98967.85;109532;1253;65410;-73
2024/04/21 06:32:04;;;;;;;16.70;15.00;;;;;;;2.59;100.00;98968.05;109517;1252;59756;-74
2024/04/21 06:34:30;;;;;;;16.80;15.10;;;;;;;2.61;100.00;98971.67;109454;1252;63754;-73
2024/04/21 06:36:57;;;;;;;15.50;14.00;;;;;;;2.60;100.00;98972.41;109505;1251;59734;-73
2024/04/21 06:39:23;;;;;;;17.90;16.10;;;;;;;2.56;100.00;98972.02;109491;1252;59926;-73
2024/04/21 06:41:49;;;;;;;18.50;16.70;;;;;;;2.54;100.00;98972.09;109523;1253;59780;-74
2024/04/21 06:44:17;;;;;;;17.40;15.40;;;;;;;2.55;100.00;98973.11;109485;1251;59801;-73
2024/04/21 06:46:43;;;;;;;19.30;17.30;;;;;;;2.55;100.00;98974.85;109511;1252;62832;-74
2024/04/21 06:49:10;;;;;;;19.50;17.20;;;;;;;2.53;100.00;98978.43;109481;1253;60035;-74
2024/04/21 06:51:36;;;;;;;19.60;17.20;;;;;;;2.53;100.00;98977.20;109512;1252;59832;-73
2024/04/21 06:54:02;;;;;;;21.70;18.60;;;;;;;2.54;100.00;98979.11;109519;1253;59895;-74
2024/04/21 06:56:29;;;;;;;21.20;19.00;;;;;;;2.54;100.00;98978.95;109236;1253;60048;-73
2024/04/21 06:58:55;;;;;;;18.10;16.20;;;;;;;2.53;100.00;98976.17;109537;1251;60301;-73
2024/04/21 07:01:21;;;;;;;20.00;17.50;;;;;;;2.51;100.00;98974.30;109474;1253;59778;-74
2024/04/21 07:03:48;;;;;;;18.30;16.30;;;;;;;2.49;100.00;98978.06;109464;1254;59882;-73
2024/04/21 07:06:14;;;;;;;21.80;17.80;;;;;;;2.51;100.00;98978.66;109535;1253;59790;-74
2024/04/21 07:08:41;;;;;;;23.60;19.70;;;;;;;2.53;100.00;98981.58;109471;1254;60038;-73
2024/04/21 07:11:07;;;;;;;20.50;18.10;;;;;;;2.57;100.00;98982.67;109499;1251;59966;-73
2024/04/21 07:13:33;;;;;;;19.60;17.60;;;;;;;2.58;100.00;98984.05;109504;1251;59813;-73
2024/04/21 07:16:00;;;;;;;20.30;18.20;;;;;;;2.59;100.00;98986.48;109555;1251;59771;-73
2024/04/21 07:18:26;;;;;;;23.10;19.10;;;;;;;2.60;100.00;98988.36;109580;1251;59852;-74
2024/04/21 07:20:52;;;;;;;24.50;19.30;;;;;;;2.62;100.00;98988.10;109542;1251;59876;-73
2024/04/21 07:23:18;;;;;;;22.50;18.50;;;;;;;2.66;100.00;98989.58;109493;1251;59806;-74
2024/04/21 07:25:45;;;;;;;22.80;19.20;;;;;;;2.69;100.00;98989.28;109545;1251;59742;-74
2024/04/21 07:28:11;;;;;;;23.90;19.90;;;;;;;2.73;100.00;98989.84;109564;1251;59967;-73
2024/04/21 07:30:37;;;;;;;22.10;19.70;;;;;;;2.75;100.00;98987.67;109557;1250;59863;-75
2024/04/21 07:33:04;;;;;;;23.70;18.60;;;;;;;2.78;100.00;98989.31;109203;1251;59844;-74
2024/04/21 07:35:30;;;;;;;24.60;20.70;;;;;;;2.86;100.00;98990.09;109521;1251;59847;-74
2024/04/21 07:37:56;;;;;;;22.10;19.40;;;;;;;2.95;100.00;98992.73;109522;1251;60069;-74
2024/04/21 07:40:23;;;;;;;23.30;19.50;;;;;;;3.00;100.00;98993.64;109567;1251;59741;-74
2024/04/21 07:42:49;;;;;;;22.80;20.10;;;;;;;3.04;100.00;98996.46;109510;1251;59756;-74
2024/04/21 07:45:15;;;;;;;23.80;19.60;;;;;;;3.06;100.00;98998.85;109578;1251;59919;-74
2024/04/21 07:47:42;;;;;;;24.50;19.70;;;;;;;3.13;100.00;98998.56;109388;1251;59949;-74
2024/04/21 07:50:08;;;;;;;25.00;19.40;;;;;;;3.20;100.00;98997.09;109584;1251;59892;-73
2024/04/21 07:52:34;;;;;;;23.00;20.60;;;;;;;3.21;100.00;98997.77;109593;1251;60175;-74
2024/04/21 07:55:01;;;;;;;26.40;21.10;;;;;;;3.25;100.00;99001.64;109531;1251;60139;-74
2024/04/21 07:57:27;;;;;;;28.70;24.00;;;;;;;3.29;100.00;99000.80;109516;1251;59725;-74
2024/04/21 07:59:53;;;;;;;27.70;24.60;;;;;;;3.33;100.00;99003.83;109494;1254;59831;-73
2024/04/21 08:02:20;;;;;;;24.90;22.00;;;;;;;3.33;100.00;99004.89;109545;1251;59763;-74
2024/04/21 08:04:47;;;;;;;25.70;23.00;;;;;;;3.27;100.00;99005.60;109588;1251;60502;-73
2024/04/21 08:07:13;;;;;;;24.70;21.80;;;;;;;3.26;100.00;99006.35;109530;1251;59837;-73
2024/04/21 08:09:39;;;;;;;29.80;21.20;;;;;;;3.24;100.00;99006.26;109517;1251;59937;-74
2024/04/21 08:12:06;;;;;;;23.00;20.50;;;;;;;3.21;100.00;99010.58;109361;1251;59916;-73
2024/04/21 08:14:33;;;;;;;30.20;25.70;;;;;;;3.22;100.00;99010.20;109519;1251;59690;-74
2024/04/21 08:16:59;;;;;;;28.60;24.90;;;;;;;3.27;100.00;99008.95;109542;1251;59752;-74
2024/04/21 08:19:25;;;;;;;32.70;26.30;;;;;;;3.35;100.00;99011.98;109585;1251;59962;-74
2024/04/21 08:21:52;;;;;;;32.60;25.10;;;;;;;3.45;100.00;99014.77;109558;1251;60035;-74
2024/04/21 08:24:18;;;;;;;31.20;24.90;;;;;;;3.61;100.00;99013.50;109489;1251;60092;-74
2024/04/21 08:26:44;;;;;;;30.80;26.50;;;;;;;3.74;100.00;99015.08;109562;1251;59755;-74
2024/04/21 08:29:11;;;;;;;24.60;22.00;;;;;;;3.91;100.00;99013.01;109519;1251;59845;-74
2024/04/21 08:31:37;;;;;;;25.30;21.80;;;;;;;4.07;100.00;99019.08;109592;1251;59776;-72
2024/04/21 08:34:04;;;;;;;24.70;20.80;;;;;;;4.19;100.00;99012.94;109542;1251;59859;-74
2024/04/21 08:36:30;;;;;;;22.30;20.00;;;;;;;4.30;100.00;99013.74;109561;1251;59806;-74
2024/04/21 08:38:56;;;;;;;24.50;20.60;;;;;;;4.43;100.00;99012.52;109539;1251;60175;-73
2024/04/21 08:41:23;;;;;;;20.90;18.30;;;;;;;4.60;100.00;99014.79;109539;1251;60130;-74
2024/04/21 08:43:53;;;;;;;23.80;21.10;;;;;;;4.84;100.00;99016.02;109551;1251;60259;-73
2024/04/21 08:46:20;;;;;;;21.20;19.00;;;;;;;5.06;100.00;99012.77;109527;1251;64980;-74
2024/04/21 08:48:47;;;;;;;21.70;19.40;;;;;;;5.13;100.00;99011.22;109546;1251;59869;-74
2024/04/21 08:51:15;;;;;;;22.50;20.20;;;;;;;5.16;100.00;99010.92;109295;1251;59863;-76
2024/04/21 08:53:41;;;;;;;19.40;17.30;;;;;;;5.10;100.00;99012.63;109502;1251;65609;-74
2024/04/21 08:56:16;;;;;;;17.90;15.40;;;;;;;4.98;100.00;99012.23;109547;1251;60082;-74
2024/04/21 08:58:46;;;;;;;18.40;16.60;;;;;;;4.85;100.00;99014.02;109206;1251;62814;-74
2024/04/21 09:01:13;;;;;;;20.70;18.60;;;;;;;4.81;100.00;99016.66;109528;1251;59809;-74
2024/04/21 09:03:41;;;;;;;18.40;16.60;;;;;;;4.83;100.00;99017.11;109522;1251;60102;-75
2024/04/21 09:06:09;;;;;;;19.10;17.20;;;;;;;4.78;100.00;99018.77;109558;1251;66921;-74
2024/04/21 09:08:35;;;;;;;18.20;16.40;;;;;;;4.80;100.00;99017.08;109562;1251;60121;-74
2024/04/21 09:11:02;;;;;;;17.00;15.30;;;;;;;4.88;100.00;99017.77;109531;1251;59822;-74
2024/04/21 09:13:28;;;;;;;17.60;16.00;;;;;;;4.89;100.00;99018.13;109485;1251;59711;-74
2024/04/21 09:15:54;;;;;;;16.80;15.20;;;;;;;4.88;100.00;99019.76;109605;1251;59812;-74
2024/04/21 09:18:21;;;;;;;15.70;14.10;;;;;;;4.78;100.00;99020.52;109545;1256;59768;-74
2024/04/21 09:20:47;;;;;;;16.70;15.00;;;;;;;4.71;100.00;99021.14;109530;1251;59804;-74
2024/04/21 09:23:14;;;;;;;18.30;16.50;;;;;;;4.72;100.00;99019.90;109533;1251;60816;-79
2024/04/21 09:25:40;;;;;;;16.70;15.00;;;;;;;4.78;100.00;99020.70;109256;1251;60072;-78
2024/04/21 09:28:06;;;;;;;17.00;15.30;;;;;;;4.84;100.00;99022.38;109511;1251;59917;-75
2024/04/21 09:30:32;;;;;;;17.50;15.80;;;;;;;4.88;100.00;99018.66;109527;1251;60113;-74
2024/04/21 09:32:59;;;;;;;15.30;13.80;;;;;;;4.77;100.00;99023.20;109554;1251;60946;-74
2024/04/21 09:35:26;;;;;;;16.90;15.30;;;;;;;4.66;100.00;99021.19;109538;1251;59840;-74
2024/04/21 09:37:53;;;;;;;16.50;14.90;;;;;;;4.61;100.00;99019.12;109511;1251;59756;-75
2024/04/21 09:40:19;;;;;;;19.20;17.20;;;;;;;4.58;100.00;99016.59;109583;1251;59754;-74
2024/04/21 09:42:47;;;;;;;17.40;15.60;;;;;;;4.64;100.00;99016.36;109344;1251;65610;-72
2024/04/21 09:45:16;;;;;;;18.20;16.30;;;;;;;4.65;100.00;99012.98;109545;1251;59748;-75
2024/04/21 09:47:44;;;;;;;18.00;16.30;;;;;;;4.61;100.00;99012.27;109563;1251;64168;-75
2024/04/21 09:50:12;;;;;;;20.40;18.50;;;;;;;4.60;100.00;99011.44;109450;1251;59820;-76
2024/04/21 09:52:38;;;;;;;18.10;16.20;;;;;;;4.60;100.00;99013.70;109458;1253;59669;-75
2024/04/21 09:55:05;;;;;;;21.10;19.00;;;;;;;4.60;100.00;99009.81;109440;1253;66808;-74
2024/04/21 09:57:36;;;;;;;19.20;17.20;;;;;;;4.69;100.00;99010.52;109500;1252;60194;-75
2024/04/21 10:00:05;;;;;;;19.00;17.30;;;;;;;4.73;100.00;99011.20;109518;1252;64118;-73
2024/04/21 10:02:37;;;;;;;17.60;15.80;;;;;;;4.80;100.00;99012.16;109500;1252;59773;-75
2024/04/21 10:05:10;;;;;;;17.40;15.80;;;;;;;4.88;100.00;99014.96;109455;1253;59944;-74
2024/04/21 10:07:38;;;;;;;17.10;15.60;;;;;;;4.93;100.00;99011.93;109515;1253;66760;-74
2024/04/21 10:10:18;;;;;;;20.40;18.40;;;;;;;4.98;100.00;99013.30;109457;1255;60755;-74
2024/04/21 10:12:45;;;;;;;17.90;16.20;;;;;;;4.93;100.00;99012.13;109268;1253;64076;-75
2024/04/21 10:15:15;;;;;;;18.80;16.70;;;;;;;4.86;100.00;99011.71;109514;1253;59874;-74
2024/04/21 10:18:01;;;;;;;20.20;18.30;;;;;;;4.83;100.00;99015.86;109460;1256;59938;-75
2024/04/21 10:20:32;;;;;;;19.70;17.70;;;;;;;4.84;100.00;99014.95;109497;1253;66745;-74
2024/04/21 10:23:00;;;;;;;20.50;18.60;;;;;;;4.86;100.00;99014.36;109480;1252;59820;-74
2024/04/21 10:25:34;;;;;;;17.40;15.80;;;;;;;4.88;100.00;99011.14;109482;1254;65103;-74
2024/04/21 10:28:08;;;;;;;16.30;14.70;;;;;;;4.92;100.00;99010.55;109487;1253;59725;-75
2024/04/21 10:30:36;;;;;;;16.10;14.40;;;;;;;4.90;100.00;99010.48;109528;1254;59672;-75
2024/04/21 10:33:09;;;;;;;17.00;15.40;;;;;;;4.87;100.00;99009.93;109519;1254;65316;-75
2024/04/21 10:35:37;;;;;;;19.50;17.70;;;;;;;4.83;100.00;99011.31;109459;1253;70088;-75
2024/04/21 10:38:21;;;;;;;18.00;16.30;;;;;;;4.75;100.00;99009.71;109475;1253;64073;-74
2024/04/21 10:40:48;;;;;;;19.00;17.20;;;;;;;4.80;100.00;99010.56;109500;1253;59830;-73
2024/04/21 10:43:16;;;;;;;20.70;18.60;;;;;;;4.94;100.00;99006.10;109392;1257;59848;-75
2024/04/21 10:45:44;;;;;;;16.60;15.20;;;;;;;5.06;100.00;99005.56;109499;1253;66597;-74
2024/04/21 10:48:10;;;;;;;18.50;16.70;;;;;;;5.11;100.00;99008.34;109525;1254;60082;-74
2024/04/21 10:50:38;;;;;;;22.40;20.10;;;;;;;5.15;100.00;99007.25;109441;1252;60118;-74
2024/04/21 10:53:06;;;;;;;19.10;17.00;;;;;;;5.19;100.00;99009.03;109453;1254;59767;-75
2024/04/21 10:55:34;;;;;;;21.30;19.20;;;;;;;5.31;100.00;99008.14;109400;1253;60076;-75
2024/04/21 10:58:02;;;;;;;16.30;14.70;;;;;;;5.39;100.00;99004.61;109497;1252;65577;-75
2024/04/21 11:00:28;;;;;;;18.20;16.10;;;;;;;5.47;100.00;99007.22;109218;1253;61337;-75
2024/04/21 11:02:56;;;;;;;20.50;18.40;;;;;;;5.58;100.00;99003.02;109454;1253;64042;-74
2024/04/21 11:05:31;;;;;;;17.70;16.00;;;;;;;5.65;100.00;99004.97;109477;1254;59789;-74
2024/04/21 11:07:58;;;;;;;16.40;14.90;;;;;;;5.64;100.00;99009.11;109486;1254;59763;-74